»·PEaware :: N8018N KAVX-KSAN

N8018N :: KAVX-KSAN

FLIGHT INFORMATION

Flight Status: Arrived
Operator: Privately registered:
United States
More flights under this callsign
Pilot: Martin K. (14811)
Aircraft: PIPER PA-28 CHEROKEE ARCHER
(PA28)
More flights by this aircraft type
Origin: KAVX Catalina
United States
Destination: KSAN San Diego Intl-Lindbergh
United States
More flights between these airports :: More routes between these airports
Route: SXC V208 OCN V23 MZB
File this flight plan on PilotEdge
Remarks: CSTP56
Altitude:
(Current/Filed)
5,000ft
Speed:
(Current/Filed)
110kts
Departed: 21-Oct-20 03:17 PM
Arrived: 21-Oct-20 04:25 PM
Distance/Time
Traveled:
74nm/1:07
Distance/Time
To Go:
Arrived

Flight Plot

Page will automatically refresh every two minutes.


Map Options




Map Legend


Flown Route
Filed Route
Departure Airport
Arrival Airport
Navaid (VOR, NDB)
Fix

Horizontal Profiles

Position Reports

Time Latitude Longitude Heading Altitude Ground
Speed
21-Oct-20 14:51 33.402759 -118.419592 54 1555ft 0kts
21-Oct-20 14:52 33.402759 -118.419592 54 1555ft 0kts
21-Oct-20 14:53 33.402759 -118.419592 54 1555ft 0kts
21-Oct-20 14:54 33.402759 -118.419592 54 1555ft 0kts
21-Oct-20 14:55 33.402759 -118.419592 54 1555ft 0kts
21-Oct-20 14:56 33.402759 -118.419592 54 1555ft 0kts
21-Oct-20 14:57 33.403627 -118.415722 145 1551ft 0kts
21-Oct-20 14:58 33.403627 -118.415722 145 1551ft 0kts
21-Oct-20 14:59 33.403627 -118.415722 145 1551ft 0kts
21-Oct-20 15:00 33.403627 -118.415722 145 1551ft 0kts
21-Oct-20 15:01 33.403627 -118.415722 145 1551ft 0kts
21-Oct-20 15:02 33.403627 -118.415722 145 1551ft 0kts
21-Oct-20 15:03 33.403627 -118.415722 145 1551ft 0kts
21-Oct-20 15:04 33.403625 -118.415720 145 1550ft 0kts
21-Oct-20 15:05 33.407178 -118.411423 30 1501ft 6kts
21-Oct-20 15:06 33.407195 -118.411412 28 1500ft 0kts
21-Oct-20 15:07 33.407195 -118.411412 28 1500ft 0kts
21-Oct-20 15:08 33.407195 -118.411412 28 1500ft 0kts
21-Oct-20 15:09 33.407195 -118.411412 28 1500ft 0kts
21-Oct-20 15:10 33.407195 -118.411412 28 1500ft 0kts
21-Oct-20 15:11 33.407195 -118.411412 28 1500ft 0kts
21-Oct-20 15:12 33.407195 -118.411412 28 1500ft 0kts
21-Oct-20 15:13 33.407195 -118.411412 28 1500ft 0kts
21-Oct-20 15:14 33.407195 -118.411412 28 1500ft 0kts
21-Oct-20 15:15 33.407070 -118.412279 236 1509ft 23kts
21-Oct-20 15:16 33.396436 -118.432273 238 1893ft 90kts
21-Oct-20 15:17 33.382997 -118.453933 239 2706ft 82kts
21-Oct-20 15:18 33.370845 -118.475749 236 3415ft 81kts
21-Oct-20 15:19 33.351713 -118.473826 120 3977ft 101kts
21-Oct-20 15:20 33.354370 -118.435902 52 3863ft 117kts
21-Oct-20 15:21 33.366326 -118.400084 107 4006ft 128kts
21-Oct-20 15:22 33.363815 -118.364205 89 4786ft 99kts
21-Oct-20 15:23 33.364780 -118.327725 102 5081ft 123kts
21-Oct-20 15:24 33.358090 -118.285029 98 4964ft 134kts
21-Oct-20 15:25 33.351090 -118.245128 100 5070ft 116kts
21-Oct-20 15:26 33.346910 -118.205802 101 4996ft 123kts
21-Oct-20 15:27 33.341757 -118.165914 102 4988ft 120kts
21-Oct-20 15:28 33.336550 -118.126547 102 4986ft 119kts
21-Oct-20 15:29 33.331381 -118.087535 102 4985ft 119kts
21-Oct-20 15:30 33.326166 -118.048413 102 4982ft 118kts
21-Oct-20 15:31 33.321081 -118.010054 102 5042ft 115kts
21-Oct-20 15:32 33.315933 -117.971558 102 5038ft 118kts
21-Oct-20 15:33 33.310719 -117.932543 102 5033ft 118kts
21-Oct-20 15:34 33.305493 -117.893609 102 5027ft 118kts
21-Oct-20 15:35 33.300279 -117.854832 102 5021ft 117kts
21-Oct-20 15:36 33.295070 -117.816201 103 5017ft 117kts
21-Oct-20 15:37 33.289841 -117.777706 102 5015ft 117kts
21-Oct-20 15:38 33.284545 -117.738955 103 5014ft 118kts
21-Oct-20 15:39 33.278679 -117.700325 103 5013ft 118kts
21-Oct-20 15:40 33.272794 -117.661555 103 5011ft 119kts
21-Oct-20 15:41 33.266869 -117.622485 103 5010ft 119kts
21-Oct-20 15:42 33.260905 -117.583071 103 4973ft 121kts
21-Oct-20 15:43 33.255766 -117.543316 100 4972ft 120kts
21-Oct-20 15:44 33.251076 -117.503765 100 4973ft 120kts
21-Oct-20 15:45 33.246256 -117.464112 100 4973ft 120kts
21-Oct-20 15:46 33.240451 -117.424991 124 4974ft 117kts
21-Oct-20 15:47 33.211825 -117.415400 180 4976ft 110kts
21-Oct-20 15:48 33.180997 -117.414003 179 4977ft 111kts
21-Oct-20 15:49 33.154596 -117.399511 122 4979ft 118kts
21-Oct-20 15:51 33.132211 -117.373261 157 4980ft 113kts
21-Oct-20 15:52 33.102877 -117.359693 163 4973ft 114kts
21-Oct-20 15:53 33.072864 -117.347100 164 4971ft 114kts
21-Oct-20 15:54 33.042974 -117.334546 163 4971ft 114kts
21-Oct-20 15:55 33.013081 -117.322003 163 4971ft 114kts
21-Oct-20 15:56 32.983181 -117.309466 163 4971ft 113kts
21-Oct-20 15:57 32.953336 -117.296961 163 4971ft 113kts
21-Oct-20 15:58 32.923529 -117.284480 163 4972ft 113kts
21-Oct-20 15:59 32.903173 -117.258386 116 4979ft 116kts
21-Oct-20 16:00 32.890689 -117.222542 114 4993ft 116kts
21-Oct-20 16:01 32.878780 -117.186391 112 4962ft 120kts
21-Oct-20 16:02 32.867465 -117.149743 111 4998ft 117kts
21-Oct-20 16:03 32.856118 -117.113452 112 5025ft 116kts
21-Oct-20 16:04 32.844123 -117.077648 116 5043ft 116kts
21-Oct-20 16:05 32.831795 -117.041247 115 4977ft 121kts
21-Oct-20 16:06 32.819472 -117.004763 114 4989ft 118kts
21-Oct-20 16:07 32.807971 -116.968070 115 4978ft 117kts
21-Oct-20 16:08 32.797378 -116.931241 111 4980ft 117kts
21-Oct-20 16:09 32.786366 -116.894714 113 4974ft 117kts
21-Oct-20 16:09 32.776809 -116.864539 118 4969ft 117kts
21-Oct-20 16:11 32.742794 -116.856994 191 4167ft 111kts
21-Oct-20 16:11 32.717789 -116.861303 189 4091ft 107kts
21-Oct-20 16:13 32.681786 -116.867029 190 4055ft 116kts
21-Oct-20 16:13 32.656246 -116.873869 228 4039ft 115kts
21-Oct-20 16:14 32.658815 -116.909028 263 4053ft 110kts
21-Oct-20 16:15 32.674992 -116.939859 279 3955ft 113kts
21-Oct-20 16:16 32.681879 -116.975156 284 4099ft 109kts
21-Oct-20 16:17 32.689585 -117.010927 281 3840ft 112kts
21-Oct-20 16:18 32.698600 -117.042157 291 3164ft 89kts
21-Oct-20 16:19 32.705260 -117.070020 277 2296ft 92kts
21-Oct-20 16:20 32.712015 -117.096938 282 1684ft 84kts
21-Oct-20 16:21 32.717873 -117.123705 283 1190ft 83kts
21-Oct-20 16:22 32.723995 -117.149655 285 723ft 71kts
21-Oct-20 16:23 32.729017 -117.170392 280 290ft 65kts
21-Oct-20 16:24 32.733203 -117.188067 312 22ft 26kts
21-Oct-20 16:25 32.734140 -117.187292 119 22ft 21kts
21-Oct-20 16:26 32.733945 -117.184099 30 22ft 0kts

Navigation Log

Ident Type
Flight plan parsing failed, navigation log unavailable